sensor_id;sensor_type;location;lat;lon;timestamp;P1;durP1;ratioP1;P2;durP2;ratioP2
35689;SDS011;26977;44.830;-0.674;2022-12-18T00:01:30;58.88;;;30.45;;
35689;SDS011;26977;44.830;-0.674;2022-12-18T00:03:58;54.25;;;29.17;;
35689;SDS011;26977;44.830;-0.674;2022-12-18T00:06:26;51.58;;;29.10;;
35689;SDS011;26977;44.830;-0.674;2022-12-18T00:08:53;53.17;;;28.95;;
35689;SDS011;26977;44.830;-0.674;2022-12-18T00:11:22;55.05;;;29.08;;
35689;SDS011;26977;44.830;-0.674;2022-12-18T00:13:50;55.50;;;28.60;;
35689;SDS011;26977;44.830;-0.674;2022-12-18T00:16:18;55.58;;;28.98;;
35689;SDS011;26977;44.830;-0.674;2022-12-18T00:18:46;57.90;;;28.38;;
35689;SDS011;26977;44.830;-0.674;2022-12-18T00:21:13;52.85;;;28.48;;
35689;SDS011;26977;44.830;-0.674;2022-12-18T00:23:40;50.75;;;27.50;;
35689;SDS011;26977;44.830;-0.674;2022-12-18T00:26:10;53.90;;;29.27;;
35689;SDS011;26977;44.830;-0.674;2022-12-18T00:28:40;50.97;;;29.05;;
35689;SDS011;26977;44.830;-0.674;2022-12-18T00:31:07;56.25;;;28.90;;
35689;SDS011;26977;44.830;-0.674;2022-12-18T00:33:35;52.08;;;27.92;;
35689;SDS011;26977;44.830;-0.674;2022-12-18T00:36:01;54.15;;;29.00;;
35689;SDS011;26977;44.830;-0.674;2022-12-18T00:38:31;58.45;;;31.13;;
35689;SDS011;26977;44.830;-0.674;2022-12-18T00:40:58;56.95;;;30.88;;
35689;SDS011;26977;44.830;-0.674;2022-12-18T00:43:24;64.63;;;32.50;;
35689;SDS011;26977;44.830;-0.674;2022-12-18T00:45:50;58.60;;;29.83;;
35689;SDS011;26977;44.830;-0.674;2022-12-18T00:48:16;59.70;;;30.33;;
35689;SDS011;26977;44.830;-0.674;2022-12-18T00:50:42;55.50;;;29.17;;
35689;SDS011;26977;44.830;-0.674;2022-12-18T00:53:08;61.58;;;30.17;;
35689;SDS011;26977;44.830;-0.674;2022-12-18T00:55:37;56.47;;;31.65;;
35689;SDS011;26977;44.830;-0.674;2022-12-18T00:58:05;59.88;;;31.88;;
35689;SDS011;26977;44.830;-0.674;2022-12-18T01:00:30;62.35;;;31.50;;
35689;SDS011;26977;44.830;-0.674;2022-12-18T01:02:56;62.60;;;32.38;;
35689;SDS011;26977;44.830;-0.674;2022-12-18T01:05:23;56.63;;;31.13;;
35689;SDS011;26977;44.830;-0.674;2022-12-18T01:07:49;61.95;;;30.52;;
35689;SDS011;26977;44.830;-0.674;2022-12-18T01:10:15;60.85;;;31.77;;
35689;SDS011;26977;44.830;-0.674;2022-12-18T01:12:41;57.92;;;31.27;;
35689;SDS011;26977;44.830;-0.674;2022-12-18T01:15:07;84.75;;;39.17;;
35689;SDS011;26977;44.830;-0.674;2022-12-18T01:17:33;96.68;;;40.97;;
35689;SDS011;26977;44.830;-0.674;2022-12-18T01:19:59;79.70;;;36.42;;
35689;SDS011;26977;44.830;-0.674;2022-12-18T01:22:24;68.53;;;34.92;;
35689;SDS011;26977;44.830;-0.674;2022-12-18T01:24:51;63.03;;;32.53;;
35689;SDS011;26977;44.830;-0.674;2022-12-18T01:27:16;61.95;;;32.25;;
35689;SDS011;26977;44.830;-0.674;2022-12-18T01:29:42;57.55;;;30.45;;
35689;SDS011;26977;44.830;-0.674;2022-12-18T01:32:10;62.78;;;33.03;;
35689;SDS011;26977;44.830;-0.674;2022-12-18T01:34:36;69.65;;;34.40;;
35689;SDS011;26977;44.830;-0.674;2022-12-18T01:37:03;61.67;;;32.30;;
35689;SDS011;26977;44.830;-0.674;2022-12-18T01:39:29;66.78;;;33.60;;
35689;SDS011;26977;44.830;-0.674;2022-12-18T01:41:57;66.63;;;34.13;;
35689;SDS011;26977;44.830;-0.674;2022-12-18T01:50:02;62.47;;;33.45;;
35689;SDS011;26977;44.830;-0.674;2022-12-18T01:54:59;69.63;;;30.98;;
35689;SDS011;26977;44.830;-0.674;2022-12-18T01:57:27;69.35;;;33.30;;
35689;SDS011;26977;44.830;-0.674;2022-12-18T01:59:55;64.68;;;31.83;;
35689;SDS011;26977;44.830;-0.674;2022-12-18T02:02:25;61.17;;;32.05;;
35689;SDS011;26977;44.830;-0.674;2022-12-18T02:04:55;66.28;;;31.60;;
35689;SDS011;26977;44.830;-0.674;2022-12-18T02:18:45;65.60;;;33.30;;
35689;SDS011;26977;44.830;-0.674;2022-12-18T02:26:40;67.43;;;31.48;;
35689;SDS011;26977;44.830;-0.674;2022-12-18T02:29:29;67.25;;;32.63;;
35689;SDS011;26977;44.830;-0.674;2022-12-18T02:32:05;68.20;;;32.58;;
35689;SDS011;26977;44.830;-0.674;2022-12-18T02:34:38;66.78;;;32.25;;
35689;SDS011;26977;44.830;-0.674;2022-12-18T02:37:06;66.63;;;32.40;;
35689;SDS011;26977;44.830;-0.674;2022-12-18T02:39:36;65.30;;;33.63;;
35689;SDS011;26977;44.830;-0.674;2022-12-18T02:42:05;66.30;;;33.55;;
35689;SDS011;26977;44.830;-0.674;2022-12-18T02:44:43;63.70;;;31.70;;
35689;SDS011;26977;44.830;-0.674;2022-12-18T02:47:12;67.45;;;33.47;;
35689;SDS011;26977;44.830;-0.674;2022-12-18T02:49:42;65.70;;;32.20;;
35689;SDS011;26977;44.830;-0.674;2022-12-18T02:56:41;67.30;;;31.35;;
35689;SDS011;26977;44.830;-0.674;2022-12-18T03:04:20;68.00;;;32.53;;
35689;SDS011;26977;44.830;-0.674;2022-12-18T03:06:58;60.83;;;31.27;;
35689;SDS011;26977;44.830;-0.674;2022-12-18T03:09:49;74.10;;;32.10;;
35689;SDS011;26977;44.830;-0.674;2022-12-18T03:12:20;81.40;;;33.00;;
35689;SDS011;26977;44.830;-0.674;2022-12-18T03:15:05;68.90;;;34.28;;
35689;SDS011;26977;44.830;-0.674;2022-12-18T03:17:40;69.70;;;32.92;;
35689;SDS011;26977;44.830;-0.674;2022-12-18T03:20:17;70.07;;;32.90;;
35689;SDS011;26977;44.830;-0.674;2022-12-18T03:22:44;75.47;;;35.10;;
35689;SDS011;26977;44.830;-0.674;2022-12-18T03:25:14;65.78;;;31.52;;
35689;SDS011;26977;44.830;-0.674;2022-12-18T03:27:45;71.50;;;33.50;;
35689;SDS011;26977;44.830;-0.674;2022-12-18T03:30:14;72.93;;;34.45;;
35689;SDS011;26977;44.830;-0.674;2022-12-18T03:33:04;69.57;;;32.33;;
35689;SDS011;26977;44.830;-0.674;2022-12-18T03:35:35;76.13;;;32.67;;
35689;SDS011;26977;44.830;-0.674;2022-12-18T03:38:04;68.68;;;32.22;;
35689;SDS011;26977;44.830;-0.674;2022-12-18T03:40:35;66.80;;;33.30;;
35689;SDS011;26977;44.830;-0.674;2022-12-18T03:46:14;73.78;;;33.20;;
35689;SDS011;26977;44.830;-0.674;2022-12-18T03:54:26;76.72;;;33.08;;
35689;SDS011;26977;44.830;-0.674;2022-12-18T03:57:01;76.47;;;33.80;;
35689;SDS011;26977;44.830;-0.674;2022-12-18T03:59:50;75.47;;;33.30;;
35689;SDS011;26977;44.830;-0.674;2022-12-18T04:02:19;72.57;;;32.20;;
35689;SDS011;26977;44.830;-0.674;2022-12-18T04:04:55;69.75;;;31.75;;
35689;SDS011;26977;44.830;-0.674;2022-12-18T04:07:25;70.38;;;31.92;;
35689;SDS011;26977;44.830;-0.674;2022-12-18T04:09:52;72.35;;;32.65;;
35689;SDS011;26977;44.830;-0.674;2022-12-18T04:12:21;78.15;;;33.67;;
35689;SDS011;26977;44.830;-0.674;2022-12-18T04:14:48;82.47;;;34.10;;
35689;SDS011;26977;44.830;-0.674;2022-12-18T04:17:14;79.93;;;33.35;;
35689;SDS011;26977;44.830;-0.674;2022-12-18T04:19:40;77.47;;;32.97;;
35689;SDS011;26977;44.830;-0.674;2022-12-18T04:22:05;75.07;;;32.25;;
35689;SDS011;26977;44.830;-0.674;2022-12-18T04:24:31;85.85;;;33.58;;
35689;SDS011;26977;44.830;-0.674;2022-12-18T04:26:57;76.18;;;33.05;;
35689;SDS011;26977;44.830;-0.674;2022-12-18T04:29:22;79.70;;;31.00;;
35689;SDS011;26977;44.830;-0.674;2022-12-18T04:31:48;79.93;;;30.67;;
35689;SDS011;26977;44.830;-0.674;2022-12-18T04:34:13;73.25;;;30.40;;
35689;SDS011;26977;44.830;-0.674;2022-12-18T04:36:40;80.97;;;32.08;;
35689;SDS011;26977;44.830;-0.674;2022-12-18T04:39:05;77.20;;;30.67;;
35689;SDS011;26977;44.830;-0.674;2022-12-18T04:41:32;78.47;;;29.88;;
35689;SDS011;26977;44.830;-0.674;2022-12-18T04:43:57;74.60;;;27.88;;
35689;SDS011;26977;44.830;-0.674;2022-12-18T04:46:23;81.07;;;29.38;;
35689;SDS011;26977;44.830;-0.674;2022-12-18T04:48:52;81.55;;;29.38;;
35689;SDS011;26977;44.830;-0.674;2022-12-18T04:51:19;77.15;;;28.98;;
35689;SDS011;26977;44.830;-0.674;2022-12-18T04:53:45;69.22;;;28.73;;
35689;SDS011;26977;44.830;-0.674;2022-12-18T04:56:14;81.18;;;29.42;;
35689;SDS011;26977;44.830;-0.674;2022-12-18T04:58:41;70.80;;;27.85;;
35689;SDS011;26977;44.830;-0.674;2022-12-18T05:01:08;71.95;;;27.55;;
35689;SDS011;26977;44.830;-0.674;2022-12-18T05:03:35;73.72;;;27.23;;
35689;SDS011;26977;44.830;-0.674;2022-12-18T05:06:02;72.13;;;26.90;;
35689;SDS011;26977;44.830;-0.674;2022-12-18T05:08:29;71.88;;;26.60;;
35689;SDS011;26977;44.830;-0.674;2022-12-18T05:10:58;73.30;;;25.75;;
35689;SDS011;26977;44.830;-0.674;2022-12-18T05:13:28;86.78;;;27.70;;
35689;SDS011;26977;44.830;-0.674;2022-12-18T05:15:54;73.55;;;27.85;;
35689;SDS011;26977;44.830;-0.674;2022-12-18T05:18:21;79.00;;;28.63;;
35689;SDS011;26977;44.830;-0.674;2022-12-18T05:20:47;86.32;;;25.00;;
35689;SDS011;26977;44.830;-0.674;2022-12-18T05:23:14;75.03;;;24.75;;
35689;SDS011;26977;44.830;-0.674;2022-12-18T05:25:41;87.50;;;25.52;;
35689;SDS011;26977;44.830;-0.674;2022-12-18T05:28:06;76.00;;;25.00;;
35689;SDS011;26977;44.830;-0.674;2022-12-18T05:30:33;100.20;;;26.10;;
35689;SDS011;26977;44.830;-0.674;2022-12-18T05:32:59;89.55;;;22.90;;
35689;SDS011;26977;44.830;-0.674;2022-12-18T05:35:25;77.28;;;23.20;;
35689;SDS011;26977;44.830;-0.674;2022-12-18T05:37:50;75.10;;;23.23;;
35689;SDS011;26977;44.830;-0.674;2022-12-18T05:40:16;61.53;;;22.95;;
35689;SDS011;26977;44.830;-0.674;2022-12-18T05:42:42;59.22;;;22.42;;
35689;SDS011;26977;44.830;-0.674;2022-12-18T05:45:08;65.55;;;21.73;;
35689;SDS011;26977;44.830;-0.674;2022-12-18T05:47:33;66.32;;;21.83;;
35689;SDS011;26977;44.830;-0.674;2022-12-18T05:49:59;72.78;;;21.23;;
35689;SDS011;26977;44.830;-0.674;2022-12-18T05:52:25;63.10;;;20.67;;
35689;SDS011;26977;44.830;-0.674;2022-12-18T05:54:53;54.53;;;20.63;;
35689;SDS011;26977;44.830;-0.674;2022-12-18T05:57:18;64.05;;;22.55;;
35689;SDS011;26977;44.830;-0.674;2022-12-18T05:59:45;66.93;;;21.38;;
35689;SDS011;26977;44.830;-0.674;2022-12-18T06:02:10;90.03;;;21.80;;
35689;SDS011;26977;44.830;-0.674;2022-12-18T06:04:36;60.60;;;20.48;;
35689;SDS011;26977;44.830;-0.674;2022-12-18T06:07:02;71.88;;;19.17;;
35689;SDS011;26977;44.830;-0.674;2022-12-18T06:09:28;71.38;;;21.13;;
35689;SDS011;26977;44.830;-0.674;2022-12-18T06:11:54;56.38;;;19.02;;
35689;SDS011;26977;44.830;-0.674;2022-12-18T06:14:19;59.72;;;20.33;;
35689;SDS011;26977;44.830;-0.674;2022-12-18T06:16:45;58.15;;;19.67;;
35689;SDS011;26977;44.830;-0.674;2022-12-18T06:19:13;59.17;;;20.38;;
35689;SDS011;26977;44.830;-0.674;2022-12-18T06:21:40;57.40;;;18.95;;
35689;SDS011;26977;44.830;-0.674;2022-12-18T06:24:06;63.30;;;19.02;;
35689;SDS011;26977;44.830;-0.674;2022-12-18T06:26:32;59.53;;;19.23;;
35689;SDS011;26977;44.830;-0.674;2022-12-18T06:28:58;58.42;;;19.52;;
35689;SDS011;26977;44.830;-0.674;2022-12-18T06:31:24;56.78;;;17.83;;
35689;SDS011;26977;44.830;-0.674;2022-12-18T06:34:02;56.00;;;20.52;;
35689;SDS011;26977;44.830;-0.674;2022-12-18T06:36:28;64.97;;;19.73;;
35689;SDS011;26977;44.830;-0.674;2022-12-18T06:38:54;68.75;;;18.90;;
35689;SDS011;26977;44.830;-0.674;2022-12-18T06:41:20;50.47;;;18.58;;
35689;SDS011;26977;44.830;-0.674;2022-12-18T06:43:46;57.35;;;20.45;;
35689;SDS011;26977;44.830;-0.674;2022-12-18T06:46:12;62.55;;;20.40;;
35689;SDS011;26977;44.830;-0.674;2022-12-18T06:48:38;61.25;;;19.48;;
35689;SDS011;26977;44.830;-0.674;2022-12-18T06:51:04;50.25;;;19.30;;
35689;SDS011;26977;44.830;-0.674;2022-12-18T06:53:31;46.63;;;18.35;;
35689;SDS011;26977;44.830;-0.674;2022-12-18T06:56:01;46.90;;;18.27;;
35689;SDS011;26977;44.830;-0.674;2022-12-18T06:58:27;50.05;;;18.98;;
35689;SDS011;26977;44.830;-0.674;2022-12-18T07:00:53;46.97;;;18.88;;
35689;SDS011;26977;44.830;-0.674;2022-12-18T07:03:23;45.83;;;19.02;;
35689;SDS011;26977;44.830;-0.674;2022-12-18T07:05:49;48.05;;;19.20;;
35689;SDS011;26977;44.830;-0.674;2022-12-18T07:08:15;64.43;;;20.75;;
35689;SDS011;26977;44.830;-0.674;2022-12-18T07:10:41;53.88;;;19.52;;
35689;SDS011;26977;44.830;-0.674;2022-12-18T07:13:07;51.97;;;20.10;;
35689;SDS011;26977;44.830;-0.674;2022-12-18T07:15:34;51.55;;;21.10;;
35689;SDS011;26977;44.830;-0.674;2022-12-18T07:18:00;59.78;;;21.45;;
35689;SDS011;26977;44.830;-0.674;2022-12-18T07:20:27;62.88;;;22.70;;
35689;SDS011;26977;44.830;-0.674;2022-12-18T07:22:53;57.97;;;22.00;;
35689;SDS011;26977;44.830;-0.674;2022-12-18T07:25:19;59.78;;;21.50;;
35689;SDS011;26977;44.830;-0.674;2022-12-18T07:27:44;63.88;;;22.55;;
35689;SDS011;26977;44.830;-0.674;2022-12-18T07:30:10;54.70;;;22.02;;
35689;SDS011;26977;44.830;-0.674;2022-12-18T07:32:36;58.75;;;21.75;;
35689;SDS011;26977;44.830;-0.674;2022-12-18T07:35:02;62.90;;;22.50;;
35689;SDS011;26977;44.830;-0.674;2022-12-18T07:37:28;56.67;;;22.00;;
35689;SDS011;26977;44.830;-0.674;2022-12-18T07:39:53;57.28;;;22.20;;
35689;SDS011;26977;44.830;-0.674;2022-12-18T07:42:19;65.10;;;21.98;;
35689;SDS011;26977;44.830;-0.674;2022-12-18T07:44:57;63.53;;;22.83;;
35689;SDS011;26977;44.830;-0.674;2022-12-18T07:47:23;68.18;;;23.83;;
35689;SDS011;26977;44.830;-0.674;2022-12-18T07:49:49;60.92;;;22.10;;
35689;SDS011;26977;44.830;-0.674;2022-12-18T07:52:15;56.83;;;23.35;;
35689;SDS011;26977;44.830;-0.674;2022-12-18T07:54:41;59.33;;;24.58;;
35689;SDS011;26977;44.830;-0.674;2022-12-18T07:57:07;58.08;;;23.15;;
35689;SDS011;26977;44.830;-0.674;2022-12-18T07:59:33;59.90;;;25.33;;
35689;SDS011;26977;44.830;-0.674;2022-12-18T08:01:59;61.70;;;23.98;;
35689;SDS011;26977;44.830;-0.674;2022-12-18T08:04:25;64.63;;;25.20;;
35689;SDS011;26977;44.830;-0.674;2022-12-18T08:06:51;59.83;;;24.38;;
35689;SDS011;26977;44.830;-0.674;2022-12-18T08:09:17;63.92;;;26.20;;
35689;SDS011;26977;44.830;-0.674;2022-12-18T08:11:43;56.17;;;24.63;;
35689;SDS011;26977;44.830;-0.674;2022-12-18T08:14:09;58.50;;;24.45;;
35689;SDS011;26977;44.830;-0.674;2022-12-18T08:16:34;61.10;;;25.95;;
35689;SDS011;26977;44.830;-0.674;2022-12-18T08:19:00;58.22;;;25.42;;
35689;SDS011;26977;44.830;-0.674;2022-12-18T08:21:27;60.70;;;24.73;;
35689;SDS011;26977;44.830;-0.674;2022-12-18T08:23:55;58.60;;;25.17;;
35689;SDS011;26977;44.830;-0.674;2022-12-18T08:26:27;59.05;;;23.85;;
35689;SDS011;26977;44.830;-0.674;2022-12-18T08:28:54;57.13;;;24.60;;
35689;SDS011;26977;44.830;-0.674;2022-12-18T08:31:21;60.60;;;25.85;;
35689;SDS011;26977;44.830;-0.674;2022-12-18T08:33:51;56.63;;;25.20;;
35689;SDS011;26977;44.830;-0.674;2022-12-18T08:36:17;55.33;;;24.77;;
35689;SDS011;26977;44.830;-0.674;2022-12-18T08:38:44;60.42;;;25.98;;
35689;SDS011;26977;44.830;-0.674;2022-12-18T08:41:12;61.38;;;25.33;;
35689;SDS011;26977;44.830;-0.674;2022-12-18T08:43:39;56.17;;;24.65;;
35689;SDS011;26977;44.830;-0.674;2022-12-18T08:46:24;55.47;;;24.67;;
35689;SDS011;26977;44.830;-0.674;2022-12-18T08:48:52;55.22;;;24.92;;
35689;SDS011;26977;44.830;-0.674;2022-12-18T08:51:19;57.75;;;25.75;;
35689;SDS011;26977;44.830;-0.674;2022-12-18T08:53:46;61.92;;;26.38;;
35689;SDS011;26977;44.830;-0.674;2022-12-18T08:56:13;53.25;;;25.80;;
35689;SDS011;26977;44.830;-0.674;2022-12-18T08:58:39;57.13;;;25.02;;
35689;SDS011;26977;44.830;-0.674;2022-12-18T09:01:07;59.22;;;26.35;;
35689;SDS011;26977;44.830;-0.674;2022-12-18T09:03:36;57.90;;;25.27;;
35689;SDS011;26977;44.830;-0.674;2022-12-18T09:06:02;60.67;;;25.92;;
35689;SDS011;26977;44.830;-0.674;2022-12-18T09:08:30;62.65;;;26.13;;
35689;SDS011;26977;44.830;-0.674;2022-12-18T09:10:55;56.78;;;26.05;;
35689;SDS011;26977;44.830;-0.674;2022-12-18T09:13:21;53.92;;;24.67;;
35689;SDS011;26977;44.830;-0.674;2022-12-18T09:15:49;55.13;;;25.17;;
35689;SDS011;26977;44.830;-0.674;2022-12-18T09:18:19;54.22;;;25.55;;
35689;SDS011;26977;44.830;-0.674;2022-12-18T09:20:46;56.67;;;25.65;;
35689;SDS011;26977;44.830;-0.674;2022-12-18T09:23:13;56.03;;;26.02;;
35689;SDS011;26977;44.830;-0.674;2022-12-18T09:25:39;55.53;;;26.08;;
35689;SDS011;26977;44.830;-0.674;2022-12-18T09:28:06;55.25;;;26.27;;
35689;SDS011;26977;44.830;-0.674;2022-12-18T09:30:42;56.30;;;26.25;;
35689;SDS011;26977;44.830;-0.674;2022-12-18T09:33:09;54.10;;;26.42;;
35689;SDS011;26977;44.830;-0.674;2022-12-18T09:35:38;60.00;;;27.00;;
35689;SDS011;26977;44.830;-0.674;2022-12-18T09:38:05;51.58;;;25.60;;
35689;SDS011;26977;44.830;-0.674;2022-12-18T09:40:45;49.83;;;25.15;;
35689;SDS011;26977;44.830;-0.674;2022-12-18T09:43:20;48.33;;;25.35;;
35689;SDS011;26977;44.830;-0.674;2022-12-18T09:45:54;49.30;;;24.50;;
35689;SDS011;26977;44.830;-0.674;2022-12-18T09:48:29;47.25;;;24.30;;
35689;SDS011;26977;44.830;-0.674;2022-12-18T09:51:00;44.45;;;23.40;;
35689;SDS011;26977;44.830;-0.674;2022-12-18T09:53:32;38.35;;;22.95;;
35689;SDS011;26977;44.830;-0.674;2022-12-18T09:56:02;41.95;;;23.10;;
35689;SDS011;26977;44.830;-0.674;2022-12-18T09:58:39;38.95;;;21.58;;
35689;SDS011;26977;44.830;-0.674;2022-12-18T10:01:10;39.25;;;20.65;;
35689;SDS011;26977;44.830;-0.674;2022-12-18T10:03:39;34.70;;;20.98;;
35689;SDS011;26977;44.830;-0.674;2022-12-18T10:06:25;35.15;;;19.77;;
35689;SDS011;26977;44.830;-0.674;2022-12-18T10:11:47;33.40;;;18.42;;
35689;SDS011;26977;44.830;-0.674;2022-12-18T10:22:25;17.58;;;10.88;;
35689;SDS011;26977;44.830;-0.674;2022-12-18T10:25:13;16.05;;;11.13;;
35689;SDS011;26977;44.830;-0.674;2022-12-18T10:27:40;15.25;;;10.23;;
35689;SDS011;26977;44.830;-0.674;2022-12-18T10:30:20;15.88;;;10.30;;
35689;SDS011;26977;44.830;-0.674;2022-12-18T10:32:47;14.82;;;10.02;;
35689;SDS011;26977;44.830;-0.674;2022-12-18T10:35:20;14.38;;;9.45;;
35689;SDS011;26977;44.830;-0.674;2022-12-18T10:38:07;11.70;;;8.50;;
35689;SDS011;26977;44.830;-0.674;2022-12-18T10:48:33;12.07;;;7.97;;
35689;SDS011;26977;44.830;-0.674;2022-12-18T10:51:02;10.30;;;6.90;;
35689;SDS011;26977;44.830;-0.674;2022-12-18T10:53:29;8.70;;;5.82;;
35689;SDS011;26977;44.830;-0.674;2022-12-18T10:55:58;10.20;;;6.38;;
35689;SDS011;26977;44.830;-0.674;2022-12-18T10:58:31;10.38;;;6.28;;
35689;SDS011;26977;44.830;-0.674;2022-12-18T11:01:11;10.57;;;6.22;;
35689;SDS011;26977;44.830;-0.674;2022-12-18T11:03:41;9.10;;;5.57;;
35689;SDS011;26977;44.830;-0.674;2022-12-18T11:06:17;9.65;;;5.30;;
35689;SDS011;26977;44.830;-0.674;2022-12-18T11:11:50;7.68;;;5.05;;
35689;SDS011;26977;44.830;-0.674;2022-12-18T11:14:21;7.18;;;5.00;;
35689;SDS011;26977;44.830;-0.674;2022-12-18T11:16:47;10.02;;;5.07;;
35689;SDS011;26977;44.830;-0.674;2022-12-18T11:21:47;8.02;;;5.22;;
35689;SDS011;26977;44.830;-0.674;2022-12-18T11:24:49;7.82;;;5.43;;
35689;SDS011;26977;44.830;-0.674;2022-12-18T11:27:05;7.10;;;4.53;;
35689;SDS011;26977;44.830;-0.674;2022-12-18T11:29:40;7.68;;;4.85;;
35689;SDS011;26977;44.830;-0.674;2022-12-18T11:34:58;9.27;;;5.95;;
35689;SDS011;26977;44.830;-0.674;2022-12-18T11:37:40;8.63;;;5.40;;
35689;SDS011;26977;44.830;-0.674;2022-12-18T11:40:17;8.32;;;5.07;;
35689;SDS011;26977;44.830;-0.674;2022-12-18T11:43:01;7.65;;;4.82;;
35689;SDS011;26977;44.830;-0.674;2022-12-18T11:45:50;6.57;;;4.18;;
35689;SDS011;26977;44.830;-0.674;2022-12-18T11:48:22;6.37;;;4.73;;
35689;SDS011;26977;44.830;-0.674;2022-12-18T11:50:56;9.57;;;5.05;;
35689;SDS011;26977;44.830;-0.674;2022-12-18T11:53:25;10.30;;;4.53;;
35689;SDS011;26977;44.830;-0.674;2022-12-18T11:58:51;9.15;;;4.70;;
35689;SDS011;26977;44.830;-0.674;2022-12-18T12:01:43;7.57;;;4.50;;
35689;SDS011;26977;44.830;-0.674;2022-12-18T12:17:45;7.95;;;4.32;;
35689;SDS011;26977;44.830;-0.674;2022-12-18T12:20:24;5.90;;;3.78;;
35689;SDS011;26977;44.830;-0.674;2022-12-18T12:25:48;7.38;;;4.20;;
35689;SDS011;26977;44.830;-0.674;2022-12-18T12:36:57;6.18;;;3.95;;
35689;SDS011;26977;44.830;-0.674;2022-12-18T12:39:46;5.78;;;4.10;;
35689;SDS011;26977;44.830;-0.674;2022-12-18T12:42:15;7.13;;;4.90;;
35689;SDS011;26977;44.830;-0.674;2022-12-18T12:45:05;6.53;;;4.30;;
35689;SDS011;26977;44.830;-0.674;2022-12-18T12:47:39;7.95;;;4.90;;
35689;SDS011;26977;44.830;-0.674;2022-12-18T12:50:13;8.75;;;4.45;;
35689;SDS011;26977;44.830;-0.674;2022-12-18T12:52:45;5.33;;;3.60;;
35689;SDS011;26977;44.830;-0.674;2022-12-18T12:55:24;8.10;;;4.45;;
35689;SDS011;26977;44.830;-0.674;2022-12-18T12:58:14;8.35;;;4.47;;
35689;SDS011;26977;44.830;-0.674;2022-12-18T13:09:19;8.07;;;4.15;;
35689;SDS011;26977;44.830;-0.674;2022-12-18T13:11:45;6.63;;;3.83;;
35689;SDS011;26977;44.830;-0.674;2022-12-18T13:14:32;5.82;;;3.20;;
35689;SDS011;26977;44.830;-0.674;2022-12-18T13:19:45;5.85;;;4.05;;
35689;SDS011;26977;44.830;-0.674;2022-12-18T13:22:34;5.75;;;3.63;;
35689;SDS011;26977;44.830;-0.674;2022-12-18T13:25:00;6.68;;;4.43;;
35689;SDS011;26977;44.830;-0.674;2022-12-18T13:30:45;8.00;;;3.55;;
35689;SDS011;26977;44.830;-0.674;2022-12-18T13:38:21;6.68;;;3.90;;
35689;SDS011;26977;44.830;-0.674;2022-12-18T13:40:57;6.57;;;3.75;;
35689;SDS011;26977;44.830;-0.674;2022-12-18T13:51:52;11.02;;;5.60;;
35689;SDS011;26977;44.830;-0.674;2022-12-18T13:54:30;11.63;;;5.15;;
35689;SDS011;26977;44.830;-0.674;2022-12-18T13:57:03;12.70;;;5.20;;
35689;SDS011;26977;44.830;-0.674;2022-12-18T13:59:37;8.43;;;4.75;;
35689;SDS011;26977;44.830;-0.674;2022-12-18T14:05:03;6.90;;;4.68;;
35689;SDS011;26977;44.830;-0.674;2022-12-18T14:07:29;6.20;;;4.35;;
35689;SDS011;26977;44.830;-0.674;2022-12-18T14:09:59;8.50;;;4.50;;
35689;SDS011;26977;44.830;-0.674;2022-12-18T14:12:32;9.27;;;4.70;;
35689;SDS011;26977;44.830;-0.674;2022-12-18T14:15:31;10.02;;;4.85;;
35689;SDS011;26977;44.830;-0.674;2022-12-18T14:18:02;9.00;;;4.75;;
35689;SDS011;26977;44.830;-0.674;2022-12-18T14:20:47;10.13;;;5.53;;
35689;SDS011;26977;44.830;-0.674;2022-12-18T14:28:52;9.65;;;4.95;;
35689;SDS011;26977;44.830;-0.674;2022-12-18T14:31:26;7.95;;;5.40;;
35689;SDS011;26977;44.830;-0.674;2022-12-18T14:33:53;9.07;;;5.07;;
35689;SDS011;26977;44.830;-0.674;2022-12-18T14:36:20;9.98;;;6.10;;
35689;SDS011;26977;44.830;-0.674;2022-12-18T14:38:51;10.95;;;6.28;;
35689;SDS011;26977;44.830;-0.674;2022-12-18T14:41:21;8.25;;;5.50;;
35689;SDS011;26977;44.830;-0.674;2022-12-18T14:43:49;9.73;;;5.22;;
35689;SDS011;26977;44.830;-0.674;2022-12-18T14:49:04;7.90;;;5.53;;
35689;SDS011;26977;44.830;-0.674;2022-12-18T14:51:54;8.23;;;4.68;;
35689;SDS011;26977;44.830;-0.674;2022-12-18T14:54:22;8.73;;;4.95;;
35689;SDS011;26977;44.830;-0.674;2022-12-18T14:56:51;9.00;;;5.22;;
35689;SDS011;26977;44.830;-0.674;2022-12-18T14:59:31;7.50;;;4.78;;
35689;SDS011;26977;44.830;-0.674;2022-12-18T15:02:08;8.63;;;5.30;;
35689;SDS011;26977;44.830;-0.674;2022-12-18T15:05:34;7.25;;;4.65;;
35689;SDS011;26977;44.830;-0.674;2022-12-18T15:07:42;8.60;;;5.25;;
35689;SDS011;26977;44.830;-0.674;2022-12-18T15:10:14;8.93;;;5.60;;
35689;SDS011;26977;44.830;-0.674;2022-12-18T15:18:01;8.15;;;5.65;;
35689;SDS011;26977;44.830;-0.674;2022-12-18T15:23:14;7.93;;;5.15;;
35689;SDS011;26977;44.830;-0.674;2022-12-18T15:25:40;10.98;;;4.90;;
35689;SDS011;26977;44.830;-0.674;2022-12-18T15:28:17;9.23;;;5.63;;
35689;SDS011;26977;44.830;-0.674;2022-12-18T15:31:01;11.73;;;6.10;;
35689;SDS011;26977;44.830;-0.674;2022-12-18T15:33:29;8.90;;;5.93;;
35689;SDS011;26977;44.830;-0.674;2022-12-18T15:35:58;8.05;;;4.95;;
35689;SDS011;26977;44.830;-0.674;2022-12-18T15:38:25;8.88;;;4.93;;
35689;SDS011;26977;44.830;-0.674;2022-12-18T15:40:52;9.82;;;5.00;;
35689;SDS011;26977;44.830;-0.674;2022-12-18T15:43:20;12.18;;;5.47;;
35689;SDS011;26977;44.830;-0.674;2022-12-18T15:46:01;8.23;;;5.68;;
35689;SDS011;26977;44.830;-0.674;2022-12-18T15:48:32;9.38;;;5.78;;
35689;SDS011;26977;44.830;-0.674;2022-12-18T15:50:59;10.45;;;5.07;;
35689;SDS011;26977;44.830;-0.674;2022-12-18T15:53:27;9.27;;;5.40;;
35689;SDS011;26977;44.830;-0.674;2022-12-18T15:55:57;12.20;;;6.82;;
35689;SDS011;26977;44.830;-0.674;2022-12-18T15:58:41;11.80;;;6.50;;
35689;SDS011;26977;44.830;-0.674;2022-12-18T16:01:08;9.10;;;6.13;;
35689;SDS011;26977;44.830;-0.674;2022-12-18T16:03:35;11.55;;;6.82;;
35689;SDS011;26977;44.830;-0.674;2022-12-18T16:06:00;11.60;;;6.85;;
35689;SDS011;26977;44.830;-0.674;2022-12-18T16:08:27;11.05;;;6.78;;
35689;SDS011;26977;44.830;-0.674;2022-12-18T16:10:54;11.60;;;7.05;;
35689;SDS011;26977;44.830;-0.674;2022-12-18T16:13:21;9.35;;;6.50;;
35689;SDS011;26977;44.830;-0.674;2022-12-18T16:15:47;14.50;;;6.53;;
35689;SDS011;26977;44.830;-0.674;2022-12-18T16:18:13;11.27;;;6.55;;
35689;SDS011;26977;44.830;-0.674;2022-12-18T16:20:39;12.15;;;6.70;;
35689;SDS011;26977;44.830;-0.674;2022-12-18T16:23:05;14.82;;;7.32;;
35689;SDS011;26977;44.830;-0.674;2022-12-18T16:25:31;10.45;;;7.13;;
35689;SDS011;26977;44.830;-0.674;2022-12-18T16:27:58;10.20;;;7.20;;
35689;SDS011;26977;44.830;-0.674;2022-12-18T16:30:25;12.07;;;7.97;;
35689;SDS011;26977;44.830;-0.674;2022-12-18T16:32:57;13.45;;;7.70;;
35689;SDS011;26977;44.830;-0.674;2022-12-18T16:35:23;13.15;;;8.40;;
35689;SDS011;26977;44.830;-0.674;2022-12-18T16:37:50;11.68;;;7.65;;
35689;SDS011;26977;44.830;-0.674;2022-12-18T16:40:16;14.43;;;8.55;;
35689;SDS011;26977;44.830;-0.674;2022-12-18T16:42:43;14.15;;;8.40;;
35689;SDS011;26977;44.830;-0.674;2022-12-18T16:45:11;12.70;;;8.55;;
35689;SDS011;26977;44.830;-0.674;2022-12-18T16:47:39;12.73;;;8.60;;
35689;SDS011;26977;44.830;-0.674;2022-12-18T16:50:06;14.60;;;9.30;;
35689;SDS011;26977;44.830;-0.674;2022-12-18T16:52:35;15.88;;;8.38;;
35689;SDS011;26977;44.830;-0.674;2022-12-18T16:55:01;13.32;;;8.45;;
35689;SDS011;26977;44.830;-0.674;2022-12-18T16:57:27;13.73;;;8.57;;